Time;durP1;ratioP1;P1;durP2;ratioP2;P2;SDS_P1;SDS_P2;PMS_P1;PMS_P2;Temp;Humidity;BMP_temperature;BMP_pressure;BME280_temperature;BME280_humidity;BME280_pressure;Samples;Min_cycle;Max_cycle;Signal;HPM_P1;HPM_P2
2023/07/31 00:00:16;;;;;;;4.37;2.13;;;14.80;99.90;;;;;;5037024;28;20566;-77
2023/07/31 00:02:44;;;;;;;3.90;1.90;;;14.80;99.90;;;;;;5036615;28;20240;-76
2023/07/31 00:05:12;;;;;;;5.07;2.37;;;14.70;99.90;;;;;;5051466;28;20662;-74
2023/07/31 00:07:41;;;;;;;4.70;2.10;;;14.80;99.90;;;;;;5061193;28;20738;-75
2023/07/31 00:10:10;;;;;;;6.27;2.13;;;14.70;99.90;;;;;;5058613;28;20228;-74
2023/07/31 00:12:39;;;;;;;3.87;2.03;;;14.70;99.90;;;;;;5058382;28;20208;-74
2023/07/31 00:15:08;;;;;;;5.03;2.13;;;14.70;99.90;;;;;;5040458;28;20687;-75
2023/07/31 00:17:36;;;;;;;4.90;2.17;;;14.70;99.90;;;;;;5038085;28;20321;-78
2023/07/31 00:20:05;;;;;;;5.23;2.13;;;14.60;99.90;;;;;;5039602;28;20204;-78
2023/07/31 00:22:33;;;;;;;4.03;2.03;;;14.60;99.90;;;;;;5034942;28;20287;-76
2023/07/31 00:25:04;;;;;;;3.33;1.80;;;14.60;99.90;;;;;;5036776;28;20251;-76
2023/07/31 00:27:32;;;;;;;5.13;2.23;;;14.50;99.90;;;;;;5037267;28;20586;-78
2023/07/31 00:30:00;;;;;;;6.00;2.30;;;14.50;99.90;;;;;;5038456;28;20275;-77
2023/07/31 00:32:28;;;;;;;6.40;2.20;;;14.40;99.90;;;;;;5038013;28;20598;-76
2023/07/31 00:34:56;;;;;;;2.23;1.90;;;14.40;99.90;;;;;;5037412;28;20223;-73
2023/07/31 00:37:24;;;;;;;4.70;2.10;;;14.30;99.90;;;;;;5038466;28;20232;-78
2023/07/31 00:39:52;;;;;;;4.93;2.27;;;14.30;99.90;;;;;;5037542;28;20615;-74
2023/07/31 00:42:22;;;;;;;3.57;2.00;;;14.30;99.90;;;;;;5038974;28;20235;-75
2023/07/31 00:44:50;;;;;;;3.63;2.00;;;14.30;99.90;;;;;;5038844;28;20251;-77
2023/07/31 00:47:18;;;;;;;5.70;2.20;;;14.30;99.90;;;;;;5043070;28;20239;-74
2023/07/31 00:49:46;;;;;;;3.93;2.10;;;14.30;99.90;;;;;;5058330;28;20705;-73
2023/07/31 00:52:15;;;;;;;6.10;2.00;;;14.30;99.90;;;;;;5057980;28;20204;-73
2023/07/31 00:54:43;;;;;;;5.83;2.00;;;14.30;99.90;;;;;;5054029;28;20212;-77
2023/07/31 00:57:11;;;;;;;5.53;2.10;;;14.40;99.90;;;;;;5034559;28;20343;-78
2023/07/31 00:59:40;;;;;;;4.47;2.20;;;14.40;99.90;;;;;;5034870;28;20251;-78
2023/07/31 01:02:09;;;;;;;3.73;2.10;;;14.40;99.90;;;;;;5032533;28;20306;-78
2023/07/31 01:04:37;;;;;;;4.67;2.10;;;14.40;99.90;;;;;;5031974;28;20208;-77
2023/07/31 01:07:12;;;;;;;4.60;2.00;;;14.40;99.90;;;;;;5031717;28;20596;-78
2023/07/31 01:09:45;;;;;;;6.03;2.03;;;14.30;99.90;;;;;;5031587;28;20334;-77
2023/07/31 01:12:16;;;;;;;5.13;2.03;;;14.30;99.90;;;;;;5039493;28;20204;-77
2023/07/31 01:15:02;;;;;;;3.07;2.00;;;14.30;99.90;;;;;;5051787;28;20204;-77
2023/07/31 01:17:30;;;;;;;6.83;2.30;;;14.30;99.90;;;;;;5052359;28;20230;-77
2023/07/31 01:20:03;;;;;;;3.10;1.77;;;14.30;99.90;;;;;;5052968;28;20212;-78
2023/07/31 01:22:55;;;;;;;3.87;1.90;;;14.30;99.90;;;;;;5051496;28;20553;-77
2023/07/31 01:25:38;;;;;;;3.90;2.00;;;14.30;99.90;;;;;;5052760;28;20824;-77
2023/07/31 01:28:14;;;;;;;7.37;2.20;;;14.40;99.90;;;;;;5052374;28;20654;-78
2023/07/31 01:30:46;;;;;;;5.23;2.17;;;14.40;99.90;;;;;;5038990;28;20238;-75
2023/07/31 01:33:16;;;;;;;4.77;1.83;;;14.30;99.90;;;;;;5032191;28;20239;-77
2023/07/31 01:35:47;;;;;;;4.67;2.07;;;14.30;99.90;;;;;;5032365;28;20219;-76
2023/07/31 01:38:15;;;;;;;3.93;2.00;;;14.30;99.90;;;;;;5032435;28;20232;-78
2023/07/31 01:40:43;;;;;;;4.87;2.20;;;14.30;99.90;;;;;;5032140;28;20232;-78
2023/07/31 01:43:13;;;;;;;7.10;2.20;;;14.30;99.90;;;;;;5031798;28;20307;-78
2023/07/31 01:45:41;;;;;;;3.77;1.90;;;14.30;99.90;;;;;;5032472;28;20208;-78
2023/07/31 01:48:09;;;;;;;4.80;2.00;;;14.20;99.90;;;;;;5031707;28;20274;-78
2023/07/31 01:50:37;;;;;;;4.83;2.20;;;14.20;99.90;;;;;;5032225;28;20260;-77
2023/07/31 01:53:05;;;;;;;4.53;2.30;;;14.20;99.90;;;;;;5031735;28;20271;-76
2023/07/31 01:55:33;;;;;;;4.87;2.30;;;14.20;99.90;;;;;;5031970;28;20247;-78
2023/07/31 01:58:01;;;;;;;4.90;2.03;;;14.20;99.90;;;;;;5031777;28;20271;-78
2023/07/31 02:00:30;;;;;;;3.83;2.00;;;14.20;99.90;;;;;;5031745;28;20213;-78
2023/07/31 02:03:00;;;;;;;2.30;1.67;;;14.20;99.90;;;;;;5031610;28;20213;-77
2023/07/31 02:05:29;;;;;;;4.70;2.40;;;14.20;99.90;;;;;;5032311;28;20204;-78
2023/07/31 02:07:57;;;;;;;3.57;2.30;;;14.20;99.90;;;;;;5031510;28;20228;-78
2023/07/31 02:10:25;;;;;;;4.37;2.17;;;14.10;99.90;;;;;;5031714;28;20237;-78
2023/07/31 02:12:53;;;;;;;4.30;2.30;;;14.10;99.90;;;;;;5031069;28;20304;-77
2023/07/31 02:15:21;;;;;;;3.50;2.00;;;14.10;99.90;;;;;;5032053;28;20209;-78
2023/07/31 02:17:51;;;;;;;4.53;2.00;;;14.00;99.90;;;;;;5032151;28;20212;-77
2023/07/31 02:20:19;;;;;;;5.37;2.60;;;14.00;99.90;;;;;;5043731;28;20208;-78
2023/07/31 02:22:47;;;;;;;3.40;2.20;;;13.90;99.90;;;;;;5038450;28;20239;-77
2023/07/31 02:25:15;;;;;;;7.27;2.40;;;13.80;99.90;;;;;;5031653;28;20287;-77
2023/07/31 02:27:43;;;;;;;3.50;2.10;;;13.80;99.90;;;;;;5031279;28;20205;-77
2023/07/31 02:30:12;;;;;;;4.47;2.13;;;13.70;99.90;;;;;;5031532;28;20236;-76
2023/07/31 02:32:40;;;;;;;5.67;2.20;;;13.70;99.90;;;;;;5031626;28;20274;-78
2023/07/31 02:35:11;;;;;;;4.10;2.20;;;13.70;99.90;;;;;;5031969;28;20224;-77
2023/07/31 02:37:39;;;;;;;6.43;2.30;;;13.60;99.90;;;;;;5031311;28;20213;-77
2023/07/31 02:40:08;;;;;;;4.53;2.40;;;13.60;99.90;;;;;;5031616;28;20220;-77
2023/07/31 02:42:36;;;;;;;3.37;2.20;;;13.70;99.90;;;;;;5031015;28;20212;-79
2023/07/31 02:45:05;;;;;;;5.30;2.50;;;13.70;99.90;;;;;;5031684;28;20240;-77
2023/07/31 02:47:33;;;;;;;4.20;2.20;;;13.70;99.90;;;;;;5042955;28;20208;-77
2023/07/31 02:50:01;;;;;;;3.40;2.40;;;13.60;99.90;;;;;;5051379;28;20685;-77
2023/07/31 02:52:31;;;;;;;4.87;2.60;;;13.70;99.90;;;;;;5051111;28;20212;-78
2023/07/31 02:54:59;;;;;;;6.43;2.83;;;13.70;99.90;;;;;;5033889;28;20259;-78
2023/07/31 02:57:27;;;;;;;7.40;2.40;;;13.70;99.90;;;;;;5031559;28;20213;-78
2023/07/31 02:59:55;;;;;;;5.77;2.53;;;13.70;99.90;;;;;;5031734;28;20279;-78
2023/07/31 03:02:23;;;;;;;5.10;2.30;;;13.80;99.90;;;;;;5031361;28;20263;-78
2023/07/31 03:04:51;;;;;;;4.47;2.20;;;13.70;99.90;;;;;;5031228;28;20580;-77
2023/07/31 03:07:19;;;;;;;4.60;2.70;;;13.70;99.90;;;;;;5031013;28;20720;-80
2023/07/31 03:09:49;;;;;;;4.80;2.57;;;13.70;99.90;;;;;;5031400;28;20275;-78
2023/07/31 03:12:17;;;;;;;6.47;2.80;;;13.70;99.90;;;;;;5032579;28;20259;-78
2023/07/31 03:14:45;;;;;;;5.80;2.63;;;13.60;99.90;;;;;;5034765;28;20220;-78
2023/07/31 03:17:13;;;;;;;4.77;2.70;;;13.60;99.90;;;;;;5035018;28;20233;-78
2023/07/31 03:19:41;;;;;;;5.67;2.40;;;13.60;99.90;;;;;;5034655;28;20299;-78
2023/07/31 03:22:09;;;;;;;4.97;2.70;;;13.60;99.90;;;;;;5034030;28;20208;-78
2023/07/31 03:24:37;;;;;;;6.07;2.70;;;13.60;99.90;;;;;;5034620;28;20259;-79
2023/07/31 03:27:07;;;;;;;6.97;2.60;;;13.50;99.90;;;;;;5034802;28;20266;-77
2023/07/31 03:29:35;;;;;;;4.80;2.63;;;13.50;99.90;;;;;;5034673;28;20244;-78
2023/07/31 03:32:04;;;;;;;4.70;2.53;;;13.50;99.90;;;;;;5033539;28;20267;-79
2023/07/31 03:34:32;;;;;;;5.07;2.67;;;13.50;99.90;;;;;;5034809;28;20350;-79
2023/07/31 03:37:00;;;;;;;3.60;2.50;;;13.40;99.90;;;;;;5034195;28;20267;-75
2023/07/31 03:39:28;;;;;;;6.80;3.20;;;13.40;99.90;;;;;;5034592;28;20267;-79
2023/07/31 03:41:57;;;;;;;4.57;2.47;;;13.40;99.90;;;;;;5034087;28;20255;-77
2023/07/31 03:44:26;;;;;;;6.53;3.00;;;13.40;99.90;;;;;;5034783;28;20213;-77
2023/07/31 03:46:54;;;;;;;7.13;3.00;;;13.40;99.90;;;;;;5052042;28;20232;-77
2023/07/31 03:49:22;;;;;;;7.03;2.90;;;13.50;99.90;;;;;;5048767;28;20228;-73
2023/07/31 03:51:50;;;;;;;6.60;2.80;;;13.50;99.90;;;;;;5036829;28;20221;-79
2023/07/31 03:54:19;;;;;;;6.90;3.10;;;13.60;99.90;;;;;;5038666;28;20595;-78
2023/07/31 03:56:47;;;;;;;5.07;2.97;;;13.60;99.90;;;;;;5034319;28;20682;-79
2023/07/31 03:59:15;;;;;;;5.73;2.90;;;13.60;99.90;;;;;;5033924;28;20259;-76
2023/07/31 04:01:44;;;;;;;4.70;2.77;;;13.70;99.90;;;;;;5033745;28;20201;-78
2023/07/31 04:04:12;;;;;;;7.10;2.97;;;13.80;99.90;;;;;;5033568;28;20220;-78
2023/07/31 04:06:40;;;;;;;4.67;2.60;;;13.80;99.90;;;;;;5033456;28;20263;-78
2023/07/31 04:09:09;;;;;;;4.60;2.67;;;13.90;99.90;;;;;;5039296;28;20614;-78
2023/07/31 04:11:37;;;;;;;4.43;2.60;;;13.90;99.90;;;;;;5053752;28;20224;-77
2023/07/31 04:14:05;;;;;;;3.47;2.40;;;14.00;99.90;;;;;;5053434;28;20215;-78
2023/07/31 04:16:33;;;;;;;5.40;2.57;;;14.00;99.90;;;;;;5053715;28;20208;-78
2023/07/31 04:19:03;;;;;;;7.33;2.73;;;14.10;99.90;;;;;;5052076;28;20212;-79
2023/07/31 04:21:31;;;;;;;4.73;2.60;;;14.20;99.90;;;;;;5054037;28;20200;-77
2023/07/31 04:23:59;;;;;;;5.50;2.70;;;14.20;99.90;;;;;;5052519;28;20606;-76
2023/07/31 04:26:27;;;;;;;7.10;2.50;;;14.30;99.90;;;;;;5053719;28;20236;-77
2023/07/31 04:28:55;;;;;;;6.97;2.53;;;14.40;99.90;;;;;;5034135;28;20208;-79
2023/07/31 04:31:23;;;;;;;3.90;2.53;;;14.50;99.90;;;;;;5032960;28;20233;-78
2023/07/31 04:33:51;;;;;;;6.53;2.37;;;14.50;99.90;;;;;;5032972;28;20297;-78
2023/07/31 04:36:21;;;;;;;5.20;2.73;;;14.60;99.90;;;;;;5033393;28;20219;-77
2023/07/31 04:38:49;;;;;;;5.63;2.70;;;14.70;99.90;;;;;;5033359;28;20216;-78
2023/07/31 04:41:17;;;;;;;8.93;2.70;;;14.80;99.90;;;;;;5033125;28;20244;-77
2023/07/31 04:43:45;;;;;;;3.97;2.80;;;14.80;99.90;;;;;;5036015;28;20265;-78
2023/07/31 04:46:13;;;;;;;4.73;2.73;;;14.90;99.90;;;;;;5048490;28;20259;-78
2023/07/31 04:48:41;;;;;;;6.27;2.50;;;15.00;99.90;;;;;;5033099;28;20213;-79
2023/07/31 04:51:09;;;;;;;5.27;2.87;;;15.00;99.90;;;;;;5032706;28;20205;-77
2023/07/31 04:53:39;;;;;;;3.97;2.70;;;15.10;99.90;;;;;;5032873;28;20263;-77
2023/07/31 04:56:07;;;;;;;7.20;3.00;;;15.20;99.90;;;;;;5032972;28;20674;-76
2023/07/31 04:58:35;;;;;;;5.10;2.60;;;15.30;99.90;;;;;;5033773;28;20675;-75
2023/07/31 05:01:03;;;;;;;5.93;2.60;;;15.40;99.90;;;;;;5035750;28;20235;-76
2023/07/31 05:03:31;;;;;;;4.23;2.70;;;15.40;99.90;;;;;;5038086;28;20229;-76
2023/07/31 05:05:59;;;;;;;4.10;2.67;;;15.50;99.90;;;;;;5040196;28;20222;-78
2023/07/31 05:08:27;;;;;;;5.60;2.50;;;15.50;99.90;;;;;;5057447;28;20215;-74
2023/07/31 05:10:57;;;;;;;6.97;2.80;;;15.60;99.90;;;;;;5059879;28;20265;-76
2023/07/31 05:13:25;;;;;;;9.90;2.80;;;15.50;99.90;;;;;;5056217;28;20246;-77
2023/07/31 05:15:53;;;;;;;4.00;2.70;;;15.50;99.90;;;;;;5033745;28;20274;-74
2023/07/31 05:18:22;;;;;;;6.27;2.67;;;15.50;99.90;;;;;;5032726;28;20232;-77
2023/07/31 05:20:50;;;;;;;4.63;2.70;;;15.40;99.90;;;;;;5033152;28;20217;-76
2023/07/31 05:23:18;;;;;;;5.47;2.70;;;15.40;99.90;;;;;;5032249;28;20659;-74
2023/07/31 05:25:46;;;;;;;4.70;2.83;;;15.40;99.90;;;;;;5032803;28;20208;-76
2023/07/31 05:28:15;;;;;;;6.77;2.70;;;15.40;99.90;;;;;;5032439;28;20258;-76
2023/07/31 05:30:43;;;;;;;5.03;2.90;;;15.40;99.90;;;;;;5032745;28;20687;-78
2023/07/31 05:33:12;;;;;;;5.37;2.93;;;15.50;99.90;;;;;;5046556;28;20263;-76
2023/07/31 05:35:42;;;;;;;5.53;2.80;;;15.60;99.90;;;;;;5050035;28;20287;-76
2023/07/31 05:38:10;;;;;;;6.47;2.67;;;15.80;99.90;;;;;;5046994;28;20204;-75
2023/07/31 05:40:38;;;;;;;5.57;2.70;;;15.90;99.90;;;;;;5052134;28;20250;-75
2023/07/31 05:43:08;;;;;;;4.23;2.50;;;16.10;99.90;;;;;;5051214;28;20219;-77
2023/07/31 05:45:37;;;;;;;5.60;2.37;;;16.20;99.90;;;;;;5052999;28;20254;-76
2023/07/31 05:48:05;;;;;;;4.87;2.50;;;16.40;99.90;;;;;;5050909;28;20200;-74
2023/07/31 05:50:34;;;;;;;7.20;2.73;;;16.70;99.90;;;;;;5058350;28;20647;-76
2023/07/31 05:53:02;;;;;;;3.33;2.27;;;16.90;99.90;;;;;;5057684;28;20220;-75
2023/07/31 05:55:30;;;;;;;5.20;2.47;;;17.10;99.90;;;;;;5051720;28;20217;-77
2023/07/31 05:57:58;;;;;;;4.70;2.30;;;17.40;99.90;;;;;;5053290;28;20204;-75
2023/07/31 06:00:28;;;;;;;4.63;2.40;;;17.70;99.90;;;;;;5050752;28;20204;-77
2023/07/31 06:02:58;;;;;;;6.57;2.23;;;18.30;99.90;;;;;;5053871;28;20243;-76
2023/07/31 06:05:28;;;;;;;6.43;2.30;;;19.10;99.90;;;;;;5047308;28;20212;-77
2023/07/31 06:07:56;;;;;;;6.03;2.00;;;19.60;99.90;;;;;;5032122;28;20290;-77
2023/07/31 06:10:24;;;;;;;4.03;2.10;;;20.00;99.90;;;;;;5032773;28;20567;-75
2023/07/31 06:12:52;;;;;;;5.03;2.13;;;20.30;99.90;;;;;;5036102;28;20228;-76
2023/07/31 06:15:21;;;;;;;3.50;2.00;;;20.30;99.90;;;;;;5052067;28;20212;-78
2023/07/31 06:17:49;;;;;;;6.07;2.40;;;20.20;99.90;;;;;;5052137;28;20285;-77
2023/07/31 06:20:18;;;;;;;3.10;2.30;;;20.00;99.90;;;;;;5051393;28;20211;-79
2023/07/31 06:22:46;;;;;;;3.20;1.97;;;20.00;99.90;;;;;;5044838;28;20251;-78
2023/07/31 06:25:15;;;;;;;3.80;2.07;;;19.70;99.90;;;;;;5032116;28;20304;-77
2023/07/31 06:27:43;;;;;;;5.17;2.30;;;19.80;99.90;;;;;;5032254;28;20216;-77
2023/07/31 06:30:12;;;;;;;4.27;2.00;;;19.80;99.90;;;;;;5032088;28;20628;-77
2023/07/31 06:32:41;;;;;;;3.67;1.93;;;19.80;99.90;;;;;;5031416;28;20233;-77
2023/07/31 06:35:09;;;;;;;4.70;1.73;;;19.80;99.90;;;;;;5032131;28;20223;-76
2023/07/31 06:37:40;;;;;;;5.23;2.30;;;19.80;99.90;;;;;;5031916;28;20219;-76
2023/07/31 06:40:09;;;;;;;5.17;2.30;;;19.90;99.90;;;;;;5041607;28;20294;-77
2023/07/31 06:42:38;;;;;;;4.33;2.10;;;19.90;99.90;;;;;;5050712;28;20654;-77
2023/07/31 06:45:07;;;;;;;3.40;2.23;;;19.80;99.90;;;;;;5051947;28;20203;-77
2023/07/31 06:47:35;;;;;;;4.30;2.20;;;19.90;99.90;;;;;;5050420;28;20222;-77
2023/07/31 06:50:03;;;;;;;6.60;2.23;;;19.90;99.90;;;;;;5055365;28;20203;-78
2023/07/31 06:52:32;;;;;;;5.57;2.40;;;19.80;99.90;;;;;;5054953;28;20270;-77
2023/07/31 06:55:17;;;;;;;4.50;2.27;;;19.80;99.90;;;;;;5056782;28;20597;-77
2023/07/31 06:57:45;;;;;;;6.20;2.27;;;19.70;99.90;;;;;;5052757;28;20208;-77
2023/07/31 07:00:14;;;;;;;4.03;2.27;;;19.90;99.90;;;;;;5055400;28;20238;-78
2023/07/31 07:02:42;;;;;;;3.77;2.00;;;20.00;99.90;;;;;;5054697;28;20282;-75
2023/07/31 07:05:11;;;;;;;4.43;2.30;;;20.10;99.90;;;;;;5055272;28;20204;-76
2023/07/31 07:07:41;;;;;;;5.43;2.43;;;20.20;99.90;;;;;;5036398;28;20239;-78
2023/07/31 07:10:12;;;;;;;3.87;2.20;;;20.30;99.90;;;;;;5034657;28;20248;-78
2023/07/31 07:12:40;;;;;;;4.07;2.17;;;20.40;99.90;;;;;;5034545;28;20568;-78
2023/07/31 07:15:09;;;;;;;3.33;2.30;;;20.50;99.90;;;;;;5050212;28;20212;-76
2023/07/31 07:17:38;;;;;;;3.70;2.30;;;20.70;99.90;;;;;;5055118;28;20218;-77
2023/07/31 07:20:08;;;;;;;5.07;2.23;;;20.70;99.90;;;;;;5054552;28;20212;-78
2023/07/31 07:22:36;;;;;;;3.70;2.10;;;21.30;99.90;;;;;;5042399;28;20215;-77
2023/07/31 07:25:07;;;;;;;3.53;2.07;;;21.50;99.90;;;;;;5035225;28;20205;-76
2023/07/31 07:27:36;;;;;;;3.20;1.90;;;21.80;99.90;;;;;;5034849;28;20255;-77
2023/07/31 07:30:05;;;;;;;3.90;1.90;;;22.20;99.90;;;;;;5034839;28;20318;-79
2023/07/31 07:32:33;;;;;;;5.50;1.90;;;22.20;99.90;;;;;;5034473;28;20225;-78
2023/07/31 07:35:02;;;;;;;4.40;1.80;;;21.90;99.90;;;;;;5037303;28;20245;-79
2023/07/31 07:37:30;;;;;;;3.97;2.10;;;21.70;99.90;;;;;;5044798;28;20228;-76
2023/07/31 07:40:00;;;;;;;6.83;2.10;;;22.40;99.90;;;;;;5044935;28;20211;-76
2023/07/31 07:42:28;;;;;;;7.93;2.30;;;22.90;99.40;;;;;;5042914;28;20300;-77
2023/07/31 07:44:58;;;;;;;4.73;2.10;;;23.60;99.00;;;;;;5043442;28;20196;-79
2023/07/31 07:47:27;;;;;;;5.17;1.83;;;23.90;97.30;;;;;;5043264;28;20224;-77
2023/07/31 07:49:56;;;;;;;2.40;1.70;;;23.90;96.80;;;;;;5043622;28;20288;-80
2023/07/31 07:52:24;;;;;;;4.77;2.00;;;23.80;96.40;;;;;;5043856;28;20216;-79
2023/07/31 07:54:53;;;;;;;3.50;1.80;;;23.30;96.80;;;;;;5045917;28;20237;-79
2023/07/31 07:57:21;;;;;;;4.37;1.70;;;22.90;98.00;;;;;;5044338;28;20204;-77
2023/07/31 07:59:50;;;;;;;3.93;2.00;;;23.40;97.20;;;;;;5053290;28;20232;-77
2023/07/31 08:02:19;;;;;;;2.47;1.60;;;24.40;94.30;;;;;;5053202;28;20676;-78
2023/07/31 08:04:48;;;;;;;4.10;1.80;;;25.40;93.00;;;;;;5052951;28;20334;-79
2023/07/31 08:07:16;;;;;;;3.38;1.60;;;26.80;84.00;;;;;;5052439;28;20212;-81
2023/07/31 08:09:44;;;;;;;2.80;1.65;;;27.10;81.00;;;;;;5053919;28;20208;-79
2023/07/31 08:12:14;;;;;;;4.85;1.75;;;27.40;74.20;;;;;;5052939;28;20212;-80
2023/07/31 08:14:42;;;;;;;1.70;1.40;;;28.00;70.60;;;;;;5049721;28;20232;-80
2023/07/31 08:17:10;;;;;;;3.08;1.60;;;28.00;68.90;;;;;;5052875;28;20287;-80
2023/07/31 08:19:40;;;;;;;2.88;1.75;;;27.70;69.60;;;;;;5052934;28;20196;-80
2023/07/31 08:22:08;;;;;;;5.00;1.80;;;28.50;65.00;;;;;;5052872;28;20200;-78
2023/07/31 08:24:36;;;;;;;4.00;1.90;;;27.90;63.50;;;;;;5049855;28;20288;-81
2023/07/31 08:27:04;;;;;;;3.13;1.60;;;28.20;64.20;;;;;;5052866;28;20204;-79
2023/07/31 08:29:32;;;;;;;4.38;1.85;;;27.90;67.00;;;;;;5052936;28;20568;-79
2023/07/31 08:32:00;;;;;;;5.18;1.70;;;27.50;63.80;;;;;;5049982;28;20252;-79
2023/07/31 08:34:29;;;;;;;4.82;1.80;;;27.00;64.20;;;;;;5033563;28;20229;-79
2023/07/31 08:36:58;;;;;;;5.70;2.03;;;27.10;68.90;;;;;;5033265;28;20220;-80
2023/07/31 08:39:27;;;;;;;2.72;1.77;;;27.10;68.00;;;;;;5047437;28;20211;-79
2023/07/31 08:41:59;;;;;;;2.15;1.50;;;27.30;67.30;;;;;;5052852;28;20208;-82
2023/07/31 08:44:28;;;;;;;2.85;1.60;;;27.60;70.20;;;;;;5032808;28;20251;-81
2023/07/31 08:46:56;;;;;;;6.53;1.83;;;27.90;64.20;;;;;;5033110;28;20644;-80
2023/07/31 08:49:25;;;;;;;3.17;1.88;;;27.90;65.50;;;;;;5033352;28;20553;-78
2023/07/31 08:51:54;;;;;;;4.65;2.00;;;27.80;62.50;;;;;;5032737;28;20593;-80
2023/07/31 08:54:24;;;;;;;3.30;1.73;;;26.90;65.00;;;;;;5032903;28;20228;-79
2023/07/31 08:56:54;;;;;;;3.95;1.70;;;26.40;69.50;;;;;;5032903;28;20298;-79
2023/07/31 08:59:23;;;;;;;2.75;1.73;;;25.60;70.40;;;;;;5033000;28;20212;-77
2023/07/31 09:01:56;;;;;;;2.97;1.60;;;25.20;73.50;;;;;;5032783;28;20292;-79
2023/07/31 09:04:25;;;;;;;7.43;2.00;;;24.30;76.90;;;;;;5032774;28;20636;-76
2023/07/31 09:07:00;;;;;;;4.60;1.93;;;23.90;81.80;;;;;;5032384;28;20220;-78
2023/07/31 09:09:29;;;;;;;3.93;1.97;;;23.30;88.20;;;;;;5015899;28;20215;-77
2023/07/31 09:11:59;;;;;;;3.90;1.90;;;22.90;89.30;;;;;;5032006;28;20212;-76
2023/07/31 09:14:27;;;;;;;5.77;1.80;;;22.80;91.20;;;;;;5032617;28;20228;-78
2023/07/31 09:16:58;;;;;;;3.30;1.90;;;22.60;91.40;;;;;;5032469;28;20217;-77
2023/07/31 09:19:28;;;;;;;3.83;1.93;;;22.50;92.50;;;;;;5032990;28;20211;-78
2023/07/31 09:21:56;;;;;;;5.57;2.00;;;22.20;92.40;;;;;;5031945;28;20445;-75
2023/07/31 09:24:30;;;;;;;4.33;1.93;;;22.00;93.20;;;;;;5036227;28;20201;-77
2023/07/31 09:27:00;;;;;;;3.17;1.90;;;21.80;93.30;;;;;;5052041;28;20212;-79
2023/07/31 09:29:29;;;;;;;5.20;1.80;;;21.60;95.10;;;;;;5044825;28;20200;-76
2023/07/31 09:31:58;;;;;;;2.80;1.60;;;21.40;96.00;;;;;;5051188;28;20309;-75
2023/07/31 09:34:31;;;;;;;8.93;2.00;;;21.20;97.20;;;;;;5051421;28;20216;-77
2023/07/31 09:37:02;;;;;;;5.17;1.80;;;21.20;96.10;;;;;;5048909;28;20212;-77
2023/07/31 09:39:32;;;;;;;3.03;1.80;;;21.40;94.10;;;;;;5032068;28;20211;-75
2023/07/31 09:42:00;;;;;;;3.10;1.80;;;21.70;93.80;;;;;;5029802;28;20668;-77
2023/07/31 09:44:41;;;;;;;7.13;1.83;;;21.90;93.40;;;;;;5031075;28;20200;-75
2023/07/31 09:47:23;;;;;;;3.43;1.77;;;22.00;94.00;;;;;;5031652;28;20213;-76
2023/07/31 09:49:52;;;;;;;3.83;1.83;;;22.10;93.10;;;;;;5032182;28;20208;-77
2023/07/31 09:52:20;;;;;;;5.43;2.00;;;22.20;92.40;;;;;;5030857;28;20235;-76
2023/07/31 09:54:50;;;;;;;7.37;2.07;;;22.30;93.10;;;;;;5038087;28;20277;-75
2023/07/31 09:57:19;;;;;;;4.77;1.87;;;22.10;92.10;;;;;;5032024;28;20217;-77
2023/07/31 09:59:48;;;;;;;6.00;1.90;;;22.00;92.60;;;;;;5031835;28;20219;-75
2023/07/31 10:02:22;;;;;;;5.03;2.10;;;22.20;93.60;;;;;;5031545;28;20228;-77
2023/07/31 10:04:51;;;;;;;5.23;2.20;;;22.80;92.90;;;;;;5031738;28;20266;-77
2023/07/31 10:07:23;;;;;;;4.20;1.80;;;23.50;92.90;;;;;;5031921;28;20216;-79
2023/07/31 10:09:54;;;;;;;5.23;2.03;;;24.60;87.70;;;;;;5031957;28;20196;-80
2023/07/31 10:12:25;;;;;;;3.30;1.90;;;25.30;87.10;;;;;;5031282;28;20271;-77
2023/07/31 10:14:55;;;;;;;4.40;1.60;;;25.60;79.00;;;;;;5031683;28;20581;-78
2023/07/31 10:17:24;;;;;;;4.80;1.90;;;26.10;78.70;;;;;;5031907;28;20559;-81
2023/07/31 10:19:53;;;;;;;3.35;1.80;;;26.80;76.90;;;;;;5031830;28;20209;-81
2023/07/31 10:22:22;;;;;;;4.30;1.80;;;27.00;70.80;;;;;;5044461;28;20660;-79
2023/07/31 10:24:55;;;;;;;5.13;1.92;;;27.30;74.00;;;;;;5055793;28;20204;-80
2023/07/31 10:27:23;;;;;;;4.03;1.77;;;27.60;68.70;;;;;;5055392;28;20265;-81
2023/07/31 10:29:53;;;;;;;3.95;1.95;;;27.80;72.40;;;;;;5045446;28;20279;-80
2023/07/31 10:32:23;;;;;;;4.53;1.80;;;28.70;67.10;;;;;;5035567;28;20209;-80
2023/07/31 10:34:52;;;;;;;4.28;1.92;;;29.30;61.50;;;;;;5043782;28;20216;-80
2023/07/31 10:37:25;;;;;;;6.60;1.90;;;28.60;58.80;;;;;;5052513;28;20262;-80
2023/07/31 10:40:00;;;;;;;5.18;1.80;;;27.90;63.30;;;;;;5054412;28;20689;-80
2023/07/31 10:42:30;;;;;;;6.47;1.90;;;26.90;63.30;;;;;;5054344;28;20665;-79
2023/07/31 10:44:59;;;;;;;3.42;1.70;;;26.80;68.50;;;;;;5051471;28;20204;-79
2023/07/31 10:47:27;;;;;;;5.03;1.80;;;27.50;66.00;;;;;;5053577;28;20204;-79
2023/07/31 10:50:20;;;;;;;3.70;1.88;;;27.90;61.70;;;;;;5054589;28;20410;-83
2023/07/31 10:52:49;;;;;;;3.22;1.95;;;28.10;63.20;;;;;;5055173;28;20212;-78
2023/07/31 10:55:29;;;;;;;6.07;2.00;;;28.50;59.60;;;;;;5049604;28;20220;-81
2023/07/31 10:58:05;;;;;;;3.60;1.90;;;28.60;59.30;;;;;;5048627;28;20192;-78
2023/07/31 11:00:33;;;;;;;7.45;2.10;;;28.60;59.50;;;;;;5054558;28;20200;-80
2023/07/31 11:03:04;;;;;;;4.32;1.90;;;28.80;57.10;;;;;;5052936;28;20208;-80
2023/07/31 11:05:53;;;;;;;3.88;1.85;;;28.80;56.50;;;;;;5054131;28;20210;-81
2023/07/31 11:08:23;;;;;;;4.55;1.73;;;29.00;58.20;;;;;;5051678;28;20302;-80
2023/07/31 11:11:07;;;;;;;6.03;1.70;;;29.50;58.50;;;;;;5051358;28;20213;-80
2023/07/31 11:13:42;;;;;;;4.60;2.15;;;29.50;58.40;;;;;;5037816;28;20239;-80
2023/07/31 11:16:11;;;;;;;3.42;1.83;;;29.80;55.80;;;;;;5054740;28;20216;-81
2023/07/31 11:18:41;;;;;;;3.90;1.88;;;29.50;54.90;;;;;;5050115;28;20693;-80
2023/07/31 11:21:09;;;;;;;3.92;2.05;;;29.00;55.50;;;;;;5053897;28;20243;-80
2023/07/31 11:23:39;;;;;;;3.75;1.83;;;29.00;56.60;;;;;;5051376;28;20430;-78
2023/07/31 11:26:08;;;;;;;4.30;1.95;;;28.80;55.90;;;;;;5054514;28;20219;-81
2023/07/31 11:28:38;;;;;;;5.25;1.90;;;28.20;55.50;;;;;;5035032;28;20530;-77
2023/07/31 11:31:09;;;;;;;3.85;1.90;;;28.20;57.20;;;;;;5034491;28;20232;-77
2023/07/31 11:33:38;;;;;;;3.58;1.90;;;28.10;58.00;;;;;;5034032;28;20232;-78
2023/07/31 11:36:06;;;;;;;4.03;1.90;;;28.20;55.10;;;;;;5042635;28;20224;-76
2023/07/31 11:38:35;;;;;;;3.40;1.90;;;27.50;61.00;;;;;;5045463;28;20212;-76
2023/07/31 11:41:04;;;;;;;4.37;2.07;;;27.50;58.80;;;;;;5043518;28;20208;-77
2023/07/31 11:43:36;;;;;;;5.63;1.93;;;27.30;59.50;;;;;;5042846;28;20204;-77
2023/07/31 11:46:06;;;;;;;5.50;2.00;;;27.70;58.90;;;;;;5043800;28;20243;-76
2023/07/31 11:48:37;;;;;;;5.43;2.50;;;27.70;57.20;;;;;;5043515;28;20201;-76
2023/07/31 11:51:06;;;;;;;3.43;1.80;;;28.10;58.10;;;;;;5044947;28;20276;-78
2023/07/31 11:53:38;;;;;;;4.53;2.00;;;28.00;58.10;;;;;;5045294;28;20642;-78
2023/07/31 11:56:08;;;;;;;5.77;2.10;;;27.70;59.20;;;;;;5044952;28;20213;-77
2023/07/31 11:58:39;;;;;;;2.77;1.90;;;27.40;57.30;;;;;;5043272;28;20267;-80
2023/07/31 12:01:09;;;;;;;3.43;1.83;;;27.50;55.50;;;;;;5050630;28;20208;-78
2023/07/31 12:03:37;;;;;;;4.30;1.97;;;27.30;56.90;;;;;;5051225;28;20618;-76
2023/07/31 12:06:06;;;;;;;3.30;1.93;;;27.30;57.70;;;;;;5051039;28;20568;-76
2023/07/31 12:08:34;;;;;;;3.63;2.10;;;27.10;56.60;;;;;;5053344;28;20581;-77
2023/07/31 12:11:04;;;;;;;3.63;1.73;;;27.20;60.60;;;;;;5052444;28;20208;-78
2023/07/31 12:13:35;;;;;;;3.80;2.00;;;27.20;58.00;;;;;;5053184;28;20196;-78
2023/07/31 12:16:05;;;;;;;4.73;1.93;;;27.10;57.90;;;;;;5053113;28;20235;-76
2023/07/31 12:18:36;;;;;;;3.33;1.83;;;27.10;58.00;;;;;;5051269;28;20570;-76
2023/07/31 12:21:07;;;;;;;4.07;1.80;;;27.10;58.80;;;;;;5053301;28;20200;-76
2023/07/31 12:23:38;;;;;;;4.47;2.13;;;27.20;62.50;;;;;;5052881;28;20212;-76
2023/07/31 12:26:07;;;;;;;2.47;1.73;;;27.20;58.00;;;;;;5051529;28;20201;-77
2023/07/31 12:28:41;;;;;;;4.97;2.10;;;27.40;56.50;;;;;;5053843;28;20334;-74
2023/07/31 12:31:12;;;;;;;4.87;1.97;;;26.90;61.20;;;;;;5053707;28;20300;-76
2023/07/31 12:33:41;;;;;;;3.40;2.20;;;26.60;59.20;;;;;;5047514;28;20232;-75
2023/07/31 12:36:11;;;;;;;3.80;1.93;;;26.60;60.90;;;;;;5033460;28;20236;-76
2023/07/31 12:38:39;;;;;;;3.70;2.07;;;26.60;60.70;;;;;;5033418;28;20212;-75
2023/07/31 12:41:07;;;;;;;4.30;2.07;;;26.60;58.20;;;;;;5033673;28;20217;-75
2023/07/31 12:43:36;;;;;;;5.33;2.17;;;26.90;58.90;;;;;;5033700;28;20247;-78
2023/07/31 12:46:05;;;;;;;4.83;2.00;;;27.20;59.30;;;;;;5034295;28;20205;-75
2023/07/31 12:48:35;;;;;;;5.53;2.10;;;27.60;58.40;;;;;;5042857;28;20636;-77
2023/07/31 12:51:03;;;;;;;4.40;1.80;;;27.30;57.80;;;;;;5045500;28;20205;-75
2023/07/31 12:53:31;;;;;;;3.87;2.07;;;27.10;57.00;;;;;;5033286;28;20232;-76
2023/07/31 12:56:00;;;;;;;4.77;1.70;;;27.00;53.80;;;;;;5033063;28;20229;-77
2023/07/31 12:58:28;;;;;;;5.40;2.20;;;27.30;54.20;;;;;;5033707;28;20209;-76